Time;durP1;ratioP1;P1;durP2;ratioP2;P2;SDS_P1;SDS_P2;PMS_P1;PMS_P2;Temp;Humidity;BMP_temperature;BMP_pressure;BME280_temperature;BME280_humidity;BME280_pressure;Samples;Min_cycle;Max_cycle;Signal;HPM_P1;HPM_P2
2021/08/25 00:00:21;;;;;;;3.85;2.53;;;13.70;98.00;;;;;;5086886;28;20036;-83
2021/08/25 00:02:47;;;;;;;3.78;2.83;;;13.70;98.00;;;;;;5095594;28;20044;-83
2021/08/25 00:05:13;;;;;;;5.93;2.88;;;13.80;98.10;;;;;;5098173;28;20131;-83
2021/08/25 00:07:38;;;;;;;5.43;3.08;;;13.70;98.10;;;;;;5106608;28;20046;-83
2021/08/25 00:10:04;;;;;;;11.38;3.50;;;13.70;98.20;;;;;;5104828;28;20043;-82
2021/08/25 00:12:30;;;;;;;5.90;3.13;;;13.70;98.30;;;;;;5103232;28;20024;-83
2021/08/25 00:14:56;;;;;;;5.90;3.20;;;13.70;98.30;;;;;;5103559;28;20531;-83
2021/08/25 00:17:22;;;;;;;5.43;2.97;;;13.60;98.30;;;;;;5103210;28;20032;-82
2021/08/25 00:19:47;;;;;;;4.97;3.38;;;13.60;98.30;;;;;;5099997;28;20044;-82
2021/08/25 00:22:14;;;;;;;4.53;2.55;;;13.60;98.30;;;;;;5101588;28;20047;-83
2021/08/25 00:24:40;;;;;;;7.25;3.60;;;13.60;98.30;;;;;;5109032;28;20097;-83
2021/08/25 00:27:06;;;;;;;7.07;3.30;;;13.50;98.40;;;;;;5104234;28;20405;-83
2021/08/25 00:29:33;;;;;;;4.55;2.95;;;13.50;98.40;;;;;;5088983;28;20055;-83
2021/08/25 00:31:58;;;;;;;5.72;3.50;;;13.50;98.50;;;;;;5092634;28;20410;-82
2021/08/25 00:34:24;;;;;;;10.30;3.40;;;13.40;98.50;;;;;;5087545;28;20102;-83
2021/08/25 00:36:49;;;;;;;6.35;3.55;;;13.50;98.50;;;;;;5091493;28;20083;-83
2021/08/25 00:39:15;;;;;;;4.53;3.25;;;13.40;98.60;;;;;;5089064;28;20083;-83
2021/08/25 00:41:40;;;;;;;5.70;3.40;;;13.40;98.60;;;;;;5098373;28;20317;-83
2021/08/25 00:44:06;;;;;;;6.78;3.38;;;13.40;98.70;;;;;;5094593;28;20118;-83
2021/08/25 00:46:35;;;;;;;5.53;3.92;;;13.40;98.70;;;;;;5103184;28;20432;-84
2021/08/25 00:49:00;;;;;;;6.45;3.78;;;13.30;98.80;;;;;;5103562;28;20274;-83
2021/08/25 00:51:26;;;;;;;5.38;3.47;;;13.30;98.90;;;;;;5093436;28;20059;-83
2021/08/25 00:53:52;;;;;;;4.78;3.10;;;13.20;98.90;;;;;;5103636;28;20069;-83
2021/08/25 00:56:17;;;;;;;4.90;3.47;;;13.20;99.00;;;;;;5108064;28;20036;-83
2021/08/25 00:58:43;;;;;;;6.03;3.50;;;13.20;99.00;;;;;;5103232;28;20038;-82
2021/08/25 01:01:24;;;;;;;5.35;3.45;;;13.20;98.90;;;;;;5103336;28;20044;-82
2021/08/25 01:03:56;;;;;;;7.28;3.83;;;13.20;98.90;;;;;;5097783;28;20047;-82
2021/08/25 01:06:24;;;;;;;5.13;3.25;;;13.20;99.00;;;;;;5101210;28;20078;-83
2021/08/25 01:08:50;;;;;;;5.03;3.42;;;13.10;99.00;;;;;;5104959;28;20091;-82
2021/08/25 01:11:15;;;;;;;5.25;3.33;;;13.10;99.00;;;;;;5096427;28;20039;-83
2021/08/25 01:13:41;;;;;;;6.18;4.05;;;13.00;99.00;;;;;;5102693;28;20043;-82
2021/08/25 01:16:09;;;;;;;6.32;3.30;;;13.00;99.10;;;;;;5101613;28;20374;-82
2021/08/25 01:18:35;;;;;;;5.93;3.10;;;12.90;99.10;;;;;;5103565;28;20063;-82
2021/08/25 01:21:00;;;;;;;4.45;2.95;;;12.90;99.20;;;;;;5103155;28;20078;-83
2021/08/25 01:23:27;;;;;;;4.47;3.03;;;12.90;99.30;;;;;;5102478;28;20059;-83
2021/08/25 01:25:56;;;;;;;4.22;3.03;;;12.80;99.40;;;;;;5105525;28;20122;-82
2021/08/25 01:28:25;;;;;;;5.47;3.15;;;12.80;99.50;;;;;;5099034;28;20066;-83
2021/08/25 01:30:51;;;;;;;5.20;3.65;;;12.80;99.50;;;;;;5096193;28;20039;-82
2021/08/25 01:33:30;;;;;;;6.72;3.35;;;12.70;99.50;;;;;;5096557;28;20119;-83
2021/08/25 01:35:59;;;;;;;5.00;3.13;;;12.70;99.50;;;;;;5102058;28;20332;-82
2021/08/25 01:38:41;;;;;;;4.72;3.50;;;12.70;99.60;;;;;;5100397;28;20065;-82
2021/08/25 01:41:07;;;;;;;6.82;3.13;;;12.70;99.60;;;;;;5098261;28;20135;-82
2021/08/25 01:43:34;;;;;;;5.57;3.25;;;12.60;99.60;;;;;;5103204;28;20493;-82
2021/08/25 01:46:00;;;;;;;5.03;3.47;;;12.60;99.70;;;;;;5103739;28;20040;-82
2021/08/25 01:48:25;;;;;;;5.43;3.30;;;12.60;99.70;;;;;;5103855;28;20073;-82
2021/08/25 01:50:51;;;;;;;5.72;3.38;;;12.60;99.80;;;;;;5106628;28;20039;-82
2021/08/25 01:53:17;;;;;;;6.03;3.47;;;12.60;99.80;;;;;;5103777;28;20040;-82
2021/08/25 01:55:44;;;;;;;4.63;3.30;;;12.60;99.90;;;;;;5104694;28;20043;-82
2021/08/25 01:58:09;;;;;;;8.90;3.40;;;12.60;99.90;;;;;;5096229;28;20032;-83
2021/08/25 02:00:35;;;;;;;4.65;2.70;;;12.50;99.90;;;;;;5099271;28;20043;-83
2021/08/25 02:03:00;;;;;;;5.90;2.65;;;12.60;99.90;;;;;;5101650;28;20035;-83
2021/08/25 02:05:26;;;;;;;9.32;3.58;;;12.50;99.90;;;;;;5095313;28;20291;-83
2021/08/25 02:07:51;;;;;;;5.70;2.78;;;12.50;99.70;;;;;;5102471;28;20036;-82
2021/08/25 02:10:17;;;;;;;5.22;3.55;;;12.50;99.80;;;;;;5083768;28;20043;-83
2021/08/25 02:12:43;;;;;;;6.18;4.25;;;12.50;99.80;;;;;;5102205;28;20287;-83
2021/08/25 02:15:08;;;;;;;6.88;3.65;;;12.50;99.70;;;;;;5098035;28;20051;-83
2021/08/25 02:17:34;;;;;;;4.93;3.30;;;12.40;99.80;;;;;;5089580;28;20032;-83
2021/08/25 02:19:59;;;;;;;5.25;3.38;;;12.40;99.90;;;;;;5098279;28;20036;-82
2021/08/25 02:22:25;;;;;;;4.82;3.20;;;12.40;99.90;;;;;;5099340;28;20074;-83
2021/08/25 02:24:50;;;;;;;5.43;3.13;;;12.40;99.90;;;;;;5098587;28;20101;-83
2021/08/25 02:27:16;;;;;;;5.15;3.22;;;12.40;99.90;;;;;;5098014;28;20032;-82
2021/08/25 02:29:41;;;;;;;5.25;3.35;;;12.30;99.90;;;;;;5104699;28;20110;-83
2021/08/25 02:32:07;;;;;;;6.65;3.50;;;12.30;99.90;;;;;;5108942;28;20047;-83
2021/08/25 02:34:33;;;;;;;5.82;3.47;;;12.30;99.90;;;;;;5103255;28;20120;-82
2021/08/25 02:36:58;;;;;;;5.60;3.10;;;12.30;99.90;;;;;;5111800;27;20072;-81
2021/08/25 02:39:23;;;;;;;5.85;4.03;;;12.30;99.90;;;;;;5105111;28;20118;-82
2021/08/25 02:41:49;;;;;;;5.60;3.22;;;12.30;99.90;;;;;;5097463;28;20039;-82
2021/08/25 02:44:14;;;;;;;5.10;3.53;;;12.30;99.90;;;;;;5097359;28;20270;-82
2021/08/25 02:46:40;;;;;;;4.60;2.83;;;12.30;99.90;;;;;;5089090;28;20043;-82
2021/08/25 02:49:05;;;;;;;5.07;2.95;;;12.30;99.90;;;;;;5092718;28;20046;-82
2021/08/25 02:51:31;;;;;;;9.00;3.33;;;12.30;99.90;;;;;;5103781;28;20039;-83
2021/08/25 02:53:56;;;;;;;6.63;3.88;;;12.30;99.90;;;;;;5103257;28;20402;-83
2021/08/25 02:56:22;;;;;;;6.35;3.83;;;12.30;99.90;;;;;;5109211;28;20038;-82
2021/08/25 02:58:47;;;;;;;6.43;3.88;;;12.30;99.90;;;;;;5101450;28;20138;-82
2021/08/25 03:01:13;;;;;;;8.85;3.63;;;12.30;99.90;;;;;;5099347;28;20040;-84
2021/08/25 03:03:38;;;;;;;5.43;3.05;;;12.30;99.90;;;;;;5107091;28;20290;-83
2021/08/25 03:06:04;;;;;;;4.75;3.50;;;12.30;99.90;;;;;;5103119;28;20071;-82
2021/08/25 03:08:29;;;;;;;5.68;3.40;;;12.30;99.90;;;;;;5104381;28;20040;-83
2021/08/25 03:10:55;;;;;;;5.93;3.33;;;12.30;99.90;;;;;;5099997;28;20349;-83
2021/08/25 03:13:20;;;;;;;6.00;3.58;;;12.30;99.90;;;;;;5102907;28;20028;-83
2021/08/25 03:15:46;;;;;;;4.22;3.08;;;12.30;99.90;;;;;;5105044;28;20059;-83
2021/08/25 03:18:12;;;;;;;8.25;3.90;;;12.30;99.90;;;;;;5102506;28;20027;-82
2021/08/25 03:20:37;;;;;;;4.68;3.53;;;12.30;99.90;;;;;;5098404;28;20061;-82
2021/08/25 03:23:03;;;;;;;5.70;3.63;;;12.20;99.90;;;;;;5102121;28;20517;-83
2021/08/25 03:25:28;;;;;;;6.18;3.75;;;12.20;99.90;;;;;;5101526;28;20035;-82
2021/08/25 03:27:54;;;;;;;4.10;3.28;;;12.20;99.90;;;;;;5098221;28;20539;-83
2021/08/25 03:30:19;;;;;;;5.55;3.72;;;12.20;99.90;;;;;;5099570;28;20058;-83
2021/08/25 03:32:45;;;;;;;5.65;3.22;;;12.20;99.90;;;;;;5101200;28;20653;-83
2021/08/25 03:35:10;;;;;;;6.45;3.10;;;12.10;99.90;;;;;;5090191;28;20062;-82
2021/08/25 03:37:38;;;;;;;10.63;4.15;;;12.10;99.90;;;;;;5086289;28;20123;-83
2021/08/25 03:40:05;;;;;;;6.65;3.47;;;12.10;99.90;;;;;;5089818;28;20063;-82
2021/08/25 03:42:31;;;;;;;6.18;3.95;;;12.10;99.90;;;;;;5097663;28;20074;-83
2021/08/25 03:44:56;;;;;;;5.32;3.80;;;12.10;99.90;;;;;;5102610;28;20386;-83
2021/08/25 03:47:22;;;;;;;9.35;4.75;;;12.10;99.90;;;;;;5092904;28;20123;-83
2021/08/25 03:49:47;;;;;;;10.25;5.95;;;12.10;99.90;;;;;;5106387;28;20044;-83
2021/08/25 03:52:13;;;;;;;12.32;6.63;;;12.10;99.90;;;;;;5106007;28;20058;-83
2021/08/25 03:54:38;;;;;;;12.00;6.47;;;12.10;99.90;;;;;;5106491;28;20048;-83
2021/08/25 03:57:04;;;;;;;10.65;6.93;;;12.10;99.90;;;;;;5106566;28;20050;-83
2021/08/25 03:59:29;;;;;;;11.75;7.13;;;12.10;99.90;;;;;;5096253;28;20394;-83
2021/08/25 04:01:55;;;;;;;9.98;6.25;;;12.10;99.90;;;;;;5102120;28;20044;-83
2021/08/25 04:04:20;;;;;;;13.13;7.75;;;12.10;99.90;;;;;;5104329;28;20115;-83
2021/08/25 04:06:46;;;;;;;11.55;6.97;;;12.00;99.90;;;;;;5105681;28;20040;-82
2021/08/25 04:09:11;;;;;;;9.55;6.10;;;12.10;99.90;;;;;;5108607;28;20757;-83
2021/08/25 04:11:37;;;;;;;10.55;6.00;;;12.10;99.90;;;;;;5106381;28;20401;-83
2021/08/25 04:14:03;;;;;;;9.05;6.13;;;12.00;99.90;;;;;;5106449;28;20091;-82
2021/08/25 04:16:29;;;;;;;9.60;6.25;;;12.00;99.90;;;;;;5104096;28;20063;-82
2021/08/25 04:18:56;;;;;;;8.32;5.68;;;12.00;99.90;;;;;;5102087;28;20059;-83
2021/08/25 04:21:22;;;;;;;11.23;6.38;;;12.00;99.90;;;;;;5101139;28;20055;-83
2021/08/25 04:23:48;;;;;;;9.32;5.68;;;12.00;99.90;;;;;;5094183;28;20450;-85
2021/08/25 04:26:13;;;;;;;8.65;5.97;;;12.00;99.90;;;;;;5104640;28;20188;-82
2021/08/25 04:28:39;;;;;;;9.25;5.70;;;12.00;99.90;;;;;;5101047;28;20420;-83
2021/08/25 04:31:07;;;;;;;8.82;6.28;;;12.00;99.90;;;;;;5099543;28;20063;-83
2021/08/25 04:33:32;;;;;;;6.53;4.63;;;12.00;99.90;;;;;;5102622;28;20074;-83
2021/08/25 04:35:58;;;;;;;8.30;5.93;;;12.00;99.90;;;;;;5101745;28;20404;-83
2021/08/25 04:38:24;;;;;;;6.28;4.90;;;12.00;99.90;;;;;;5098328;28;20141;-83
2021/08/25 04:40:50;;;;;;;8.35;4.88;;;12.00;99.90;;;;;;5103260;28;20295;-84
2021/08/25 04:43:15;;;;;;;11.77;5.45;;;12.00;99.90;;;;;;5090242;28;20044;-83
2021/08/25 04:45:41;;;;;;;5.60;4.10;;;12.00;99.90;;;;;;5099453;28;20040;-83
2021/08/25 04:48:06;;;;;;;7.38;4.68;;;12.00;99.90;;;;;;5104182;28;20036;-83
2021/08/25 04:50:32;;;;;;;13.80;4.93;;;12.00;99.90;;;;;;5104449;28;20036;-84
2021/08/25 04:52:58;;;;;;;9.25;5.45;;;12.00;99.90;;;;;;5098604;28;20660;-83
2021/08/25 04:55:23;;;;;;;7.00;4.85;;;12.00;99.90;;;;;;5107271;28;20085;-83
2021/08/25 04:57:49;;;;;;;11.88;4.93;;;12.00;99.90;;;;;;5105918;28;20032;-83
2021/08/25 05:00:15;;;;;;;10.52;4.78;;;12.00;99.90;;;;;;5094069;28;20044;-84
2021/08/25 05:02:40;;;;;;;10.45;5.05;;;12.00;99.90;;;;;;5103231;28;20096;-83
2021/08/25 05:05:06;;;;;;;8.50;5.32;;;12.10;99.90;;;;;;5097369;28;20290;-84
2021/08/25 05:07:32;;;;;;;5.40;3.85;;;12.10;99.90;;;;;;5098525;28;20051;-83
2021/08/25 05:09:58;;;;;;;7.57;4.93;;;12.10;99.90;;;;;;5081265;28;20131;-84
2021/08/25 05:12:23;;;;;;;7.03;4.60;;;12.10;99.90;;;;;;5093684;28;20036;-84
2021/08/25 05:14:49;;;;;;;9.25;4.65;;;12.20;99.90;;;;;;5101316;28;20043;-83
2021/08/25 05:17:14;;;;;;;7.22;4.55;;;12.20;99.90;;;;;;5092520;28;20040;-84
2021/08/25 05:19:40;;;;;;;6.65;4.47;;;12.20;99.90;;;;;;5095272;28;20040;-84
2021/08/25 05:22:06;;;;;;;9.70;4.82;;;12.20;99.90;;;;;;5094977;28;20047;-84
2021/08/25 05:24:33;;;;;;;5.95;3.92;;;12.20;99.90;;;;;;5102614;28;20044;-83
2021/08/25 05:26:59;;;;;;;8.20;4.65;;;12.30;99.90;;;;;;5099327;28;20074;-84
2021/08/25 05:29:24;;;;;;;5.80;4.05;;;12.30;99.90;;;;;;5102085;28;20031;-83
2021/08/25 05:31:50;;;;;;;7.88;4.43;;;12.30;99.90;;;;;;5094484;28;20043;-84
2021/08/25 05:34:15;;;;;;;6.35;4.13;;;12.40;99.90;;;;;;5106575;28;20409;-84
2021/08/25 05:36:41;;;;;;;6.38;4.63;;;12.40;99.90;;;;;;5095610;28;20302;-84
2021/08/25 05:39:06;;;;;;;7.95;4.03;;;12.40;99.90;;;;;;5078726;28;20101;-84
2021/08/25 05:41:32;;;;;;;6.15;4.72;;;12.40;99.90;;;;;;5095400;28;20436;-84
2021/08/25 05:43:57;;;;;;;6.57;4.57;;;12.50;99.90;;;;;;5091592;28;20105;-84
2021/08/25 05:46:23;;;;;;;6.40;4.40;;;12.60;99.90;;;;;;5085157;28;20278;-84
2021/08/25 05:48:48;;;;;;;6.93;4.70;;;12.60;99.90;;;;;;5093212;28;20352;-85
2021/08/25 05:51:14;;;;;;;6.63;4.20;;;12.60;99.90;;;;;;5092294;28;20054;-84
2021/08/25 05:53:39;;;;;;;10.05;4.90;;;12.70;99.90;;;;;;5091360;28;20044;-84
2021/08/25 05:56:05;;;;;;;9.18;4.40;;;12.70;99.90;;;;;;5103202;28;20123;-84
2021/08/25 05:58:30;;;;;;;6.95;4.82;;;12.80;99.90;;;;;;5095640;28;20047;-84
2021/08/25 06:00:56;;;;;;;6.70;4.22;;;12.80;99.90;;;;;;5097070;28;20041;-84
2021/08/25 06:03:21;;;;;;;8.27;4.38;;;12.90;99.90;;;;;;5095107;28;20125;-84
2021/08/25 06:05:51;;;;;;;8.98;3.85;;;12.90;99.90;;;;;;5088936;28;20057;-84
2021/08/25 06:08:16;;;;;;;5.85;3.35;;;13.00;99.80;;;;;;5082955;28;20302;-84
2021/08/25 06:10:42;;;;;;;5.95;3.17;;;13.10;99.80;;;;;;5087781;28;20050;-84
2021/08/25 06:13:07;;;;;;;6.55;3.97;;;13.10;99.70;;;;;;5116045;28;20581;-84
2021/08/25 06:15:33;;;;;;;6.00;4.18;;;13.20;99.70;;;;;;5107462;28;20031;-84
2021/08/25 06:17:58;;;;;;;9.40;4.95;;;13.30;99.70;;;;;;5100962;28;20090;-81
2021/08/25 06:20:24;;;;;;;5.40;3.70;;;13.30;99.70;;;;;;5105604;28;20100;-84
2021/08/25 06:22:49;;;;;;;4.53;3.63;;;13.40;99.60;;;;;;5111694;28;20619;-84
2021/08/25 06:25:15;;;;;;;5.75;3.50;;;13.40;99.50;;;;;;5106490;28;20076;-83
2021/08/25 06:27:40;;;;;;;9.07;3.97;;;13.50;99.40;;;;;;5109852;28;20043;-82
2021/08/25 06:30:07;;;;;;;4.78;3.65;;;13.60;99.40;;;;;;5085740;28;20051;-83
2021/08/25 06:32:32;;;;;;;9.35;4.45;;;13.60;99.20;;;;;;5084088;28;20322;-83
2021/08/25 06:34:57;;;;;;;6.65;3.47;;;13.70;99.00;;;;;;5083606;28;20036;-83
2021/08/25 06:37:23;;;;;;;6.28;3.92;;;13.70;99.00;;;;;;5098062;28;20040;-84
2021/08/25 06:39:48;;;;;;;5.15;3.10;;;13.80;99.00;;;;;;5093643;28;20032;-83
2021/08/25 06:42:14;;;;;;;6.97;3.22;;;13.90;99.60;;;;;;5088536;28;20039;-84
2021/08/25 06:44:39;;;;;;;5.85;3.80;;;14.00;98.20;;;;;;5095088;28;20036;-84
2021/08/25 06:47:05;;;;;;;5.53;3.47;;;14.10;98.20;;;;;;5088559;28;20040;-84
2021/08/25 06:49:30;;;;;;;5.88;3.38;;;14.20;98.10;;;;;;5085199;28;20390;-84
2021/08/25 06:51:56;;;;;;;5.30;3.35;;;14.20;97.90;;;;;;5091962;28;20036;-83
2021/08/25 06:54:21;;;;;;;7.00;2.92;;;14.30;97.40;;;;;;5095085;28;20093;-84
2021/08/25 06:56:47;;;;;;;6.22;3.88;;;14.30;96.80;;;;;;5095364;28;20043;-84
2021/08/25 06:59:12;;;;;;;8.50;4.00;;;14.40;96.80;;;;;;5111998;28;20142;-84
2021/08/25 07:01:38;;;;;;;8.20;3.72;;;14.50;96.70;;;;;;5117098;28;20043;-84
2021/08/25 07:04:03;;;;;;;9.68;3.47;;;14.60;96.90;;;;;;5099099;28;20402;-84
2021/08/25 07:06:29;;;;;;;5.65;2.85;;;14.70;96.30;;;;;;5115079;28;20262;-84
2021/08/25 07:08:54;;;;;;;4.93;2.78;;;14.80;96.30;;;;;;5112643;28;20050;-83
2021/08/25 07:11:20;;;;;;;4.55;2.38;;;14.90;95.40;;;;;;5096311;28;20089;-84
2021/08/25 07:13:45;;;;;;;6.28;2.90;;;15.00;95.70;;;;;;5095811;28;20439;-85
2021/08/25 07:16:14;;;;;;;4.82;2.88;;;15.20;95.10;;;;;;5101838;28;20051;-84
2021/08/25 07:18:41;;;;;;;5.60;3.03;;;15.30;95.10;;;;;;5116980;28;20436;-84
2021/08/25 07:21:06;;;;;;;5.65;3.20;;;15.50;95.00;;;;;;5115961;28;20039;-84
2021/08/25 07:23:32;;;;;;;8.70;3.17;;;15.60;94.40;;;;;;5116948;28;20051;-84
2021/08/25 07:25:58;;;;;;;6.18;2.97;;;15.70;94.60;;;;;;5112323;28;20046;-84
2021/08/25 07:28:23;;;;;;;5.10;3.03;;;15.90;94.30;;;;;;5095425;28;20065;-84
2021/08/25 07:30:49;;;;;;;6.97;3.58;;;16.00;93.60;;;;;;5096686;28;20055;-84
2021/08/25 07:33:16;;;;;;;6.93;2.58;;;16.10;94.20;;;;;;5095526;28;20040;-85
2021/08/25 07:35:46;;;;;;;3.88;2.67;;;16.30;93.90;;;;;;5096238;28;20032;-84
2021/08/25 07:38:12;;;;;;;6.32;3.38;;;16.40;94.20;;;;;;5095423;28;20393;-84
2021/08/25 07:40:37;;;;;;;6.60;3.10;;;16.50;93.30;;;;;;5096098;28;20109;-84
2021/08/25 07:43:06;;;;;;;5.15;3.20;;;16.60;92.80;;;;;;5107511;28;20410;-85
2021/08/25 07:45:34;;;;;;;5.40;2.60;;;16.80;93.30;;;;;;5096376;28;20048;-84
2021/08/25 07:47:59;;;;;;;7.40;3.22;;;16.90;93.30;;;;;;5095932;28;20047;-84
2021/08/25 07:50:25;;;;;;;4.50;3.05;;;17.10;92.90;;;;;;5095782;28;20046;-84
2021/08/25 07:52:50;;;;;;;5.03;3.03;;;17.30;93.00;;;;;;5098423;28;20032;-84
2021/08/25 07:55:16;;;;;;;6.38;3.42;;;17.40;92.80;;;;;;5103447;28;20093;-83
2021/08/25 07:57:41;;;;;;;4.22;2.15;;;17.50;92.60;;;;;;5115940;28;20050;-84
2021/08/25 08:00:07;;;;;;;6.90;3.20;;;17.70;92.30;;;;;;5116245;28;20032;-83
2021/08/25 08:02:36;;;;;;;5.60;3.10;;;17.90;92.70;;;;;;5115978;28;20085;-84
2021/08/25 08:05:05;;;;;;;4.13;2.40;;;18.00;91.60;;;;;;5115910;28;20046;-84
2021/08/25 08:07:31;;;;;;;4.72;2.38;;;18.30;91.60;;;;;;5116615;28;20067;-84
2021/08/25 08:09:56;;;;;;;5.72;2.53;;;18.50;90.30;;;;;;5107468;28;20082;-84
2021/08/25 08:12:22;;;;;;;4.10;2.47;;;18.60;90.20;;;;;;5110313;28;20044;-84
2021/08/25 08:14:47;;;;;;;2.47;1.67;;;18.70;90.40;;;;;;5095222;28;20043;-84
2021/08/25 08:17:15;;;;;;;6.40;2.90;;;18.80;90.10;;;;;;5095417;28;20289;-83
2021/08/25 08:19:41;;;;;;;3.95;2.47;;;18.90;89.40;;;;;;5096009;28;20032;-84
2021/08/25 08:22:06;;;;;;;5.13;2.25;;;19.00;87.50;;;;;;5111452;28;20054;-83
2021/08/25 08:24:32;;;;;;;4.30;2.42;;;19.10;87.00;;;;;;5096588;28;20106;-84
2021/08/25 08:26:58;;;;;;;8.00;2.92;;;19.10;85.30;;;;;;5099160;28;20036;-84
2021/08/25 08:29:24;;;;;;;4.97;2.72;;;19.20;87.40;;;;;;5100163;28;20047;-84
2021/08/25 08:31:50;;;;;;;6.18;3.10;;;19.20;87.60;;;;;;5100232;28;20028;-84
2021/08/25 08:34:16;;;;;;;6.88;2.42;;;19.10;87.50;;;;;;5098731;28;20032;-84
2021/08/25 08:36:41;;;;;;;3.00;2.13;;;19.00;87.00;;;;;;5104009;28;20040;-83
2021/08/25 08:39:07;;;;;;;4.90;2.92;;;19.10;86.80;;;;;;5120826;28;20404;-85
2021/08/25 08:41:33;;;;;;;6.47;2.67;;;19.10;86.30;;;;;;5117262;28;20044;-84
2021/08/25 08:43:58;;;;;;;4.82;2.38;;;19.10;87.50;;;;;;5118996;28;20070;-84
2021/08/25 08:46:24;;;;;;;5.82;2.47;;;19.20;86.20;;;;;;5119364;28;20452;-85
2021/08/25 08:48:52;;;;;;;7.88;2.90;;;19.20;85.80;;;;;;5119661;28;20040;-84
2021/08/25 08:51:21;;;;;;;4.85;2.30;;;19.30;86.90;;;;;;5116078;28;20047;-84
2021/08/25 08:53:47;;;;;;;4.28;2.50;;;19.40;87.30;;;;;;5100339;28;20097;-84
2021/08/25 08:56:12;;;;;;;3.13;2.03;;;19.40;85.50;;;;;;5119865;28;20347;-85
2021/08/25 08:58:42;;;;;;;5.82;2.05;;;19.50;85.50;;;;;;5102070;28;20028;-85
2021/08/25 09:01:08;;;;;;;4.97;3.08;;;19.60;84.90;;;;;;5098092;28;20089;-84
2021/08/25 09:03:40;;;;;;;3.17;2.28;;;19.70;86.30;;;;;;5098168;28;20040;-85
2021/08/25 09:06:07;;;;;;;3.50;2.22;;;19.80;85.30;;;;;;5098835;28;20036;-84
2021/08/25 09:08:36;;;;;;;3.80;2.38;;;19.80;82.90;;;;;;5104389;28;20036;-84
2021/08/25 09:11:17;;;;;;;6.53;2.20;;;19.80;84.40;;;;;;5118097;28;20505;-85
2021/08/25 09:13:51;;;;;;;4.60;2.47;;;19.90;83.00;;;;;;5119064;28;20073;-85
2021/08/25 09:16:27;;;;;;;6.75;2.70;;;19.90;86.60;;;;;;5118258;28;20420;-85
2021/08/25 09:19:10;;;;;;;4.45;3.47;;;20.00;85.00;;;;;;5107835;28;20050;-84
2021/08/25 09:21:50;;;;;;;5.47;2.38;;;20.10;83.60;;;;;;5082342;28;20036;-85
2021/08/25 09:24:20;;;;;;;3.72;1.90;;;20.20;82.90;;;;;;5106242;28;20402;-84
2021/08/25 09:27:07;;;;;;;4.35;2.47;;;20.30;85.10;;;;;;5098662;28;20352;-85
2021/08/25 09:29:35;;;;;;;5.95;2.70;;;20.40;82.70;;;;;;5115857;28;20043;-84
2021/08/25 09:32:00;;;;;;;4.15;2.50;;;20.50;84.50;;;;;;5118267;28;20034;-85
2021/08/25 09:34:28;;;;;;;6.30;2.88;;;20.70;82.70;;;;;;5119005;28;20055;-85
2021/08/25 09:37:06;;;;;;;7.18;3.13;;;20.80;81.80;;;;;;5101660;28;20302;-85
2021/08/25 09:39:32;;;;;;;5.07;2.42;;;20.90;81.10;;;;;;5105839;28;20097;-85
2021/08/25 09:41:57;;;;;;;3.17;2.22;;;21.10;80.70;;;;;;5098125;28;20036;-85
2021/08/25 09:44:23;;;;;;;2.72;1.85;;;21.30;80.90;;;;;;5111185;28;20027;-85
2021/08/25 09:46:50;;;;;;;3.55;2.17;;;21.50;82.40;;;;;;5117908;28;20317;-85
2021/08/25 09:49:16;;;;;;;8.38;2.00;;;21.80;78.90;;;;;;5117816;28;20028;-85
2021/08/25 09:51:42;;;;;;;3.45;2.35;;;22.00;74.20;;;;;;5106125;28;20184;-84
2021/08/25 09:54:11;;;;;;;3.58;2.05;;;22.10;77.90;;;;;;5097255;28;20119;-84
2021/08/25 09:56:38;;;;;;;3.55;2.00;;;22.20;78.00;;;;;;5097428;28;20036;-85
2021/08/25 09:59:09;;;;;;;6.97;2.45;;;22.30;76.40;;;;;;5096967;28;20069;-84
2021/08/25 10:01:35;;;;;;;4.55;2.08;;;22.30;75.20;;;;;;5097495;28;20043;-84
2021/08/25 10:04:06;;;;;;;2.92;2.28;;;22.40;76.00;;;;;;5097452;28;20043;-85
2021/08/25 10:06:34;;;;;;;2.97;1.75;;;22.30;73.10;;;;;;5097971;28;20044;-85
2021/08/25 10:09:00;;;;;;;3.08;2.05;;;22.20;75.30;;;;;;5118355;28;20040;-84
2021/08/25 10:11:30;;;;;;;3.95;1.88;;;22.10;74.30;;;;;;5116242;28;20103;-85
2021/08/25 10:13:57;;;;;;;3.40;1.90;;;22.00;73.00;;;;;;5100250;28;20119;-84
2021/08/25 10:16:46;;;;;;;3.20;2.00;;;21.90;73.10;;;;;;5097441;28;20078;-84
2021/08/25 10:19:27;;;;;;;3.65;2.00;;;21.80;74.80;;;;;;5096239;28;20042;-85
2021/08/25 10:21:57;;;;;;;4.35;2.45;;;21.70;75.80;;;;;;5097907;28;20042;-84
2021/08/25 10:24:23;;;;;;;3.30;1.95;;;21.60;76.10;;;;;;5116276;28;20039;-85
2021/08/25 10:26:57;;;;;;;3.28;2.10;;;21.50;74.90;;;;;;5124680;28;20090;-85
2021/08/25 10:29:23;;;;;;;3.28;1.98;;;21.50;77.70;;;;;;5124394;28;20051;-84
2021/08/25 10:31:49;;;;;;;3.83;1.77;;;21.40;77.50;;;;;;5119418;28;20040;-85
2021/08/25 10:34:16;;;;;;;4.05;2.63;;;21.50;78.20;;;;;;5098287;28;20047;-85
2021/08/25 10:36:42;;;;;;;3.33;1.85;;;21.60;77.80;;;;;;5086042;28;20119;-85
2021/08/25 10:39:30;;;;;;;4.38;2.15;;;21.60;76.30;;;;;;5083720;28;20119;-86
2021/08/25 10:41:56;;;;;;;3.78;2.28;;;21.80;78.30;;;;;;5086224;28;20138;-87
2021/08/25 10:44:37;;;;;;;3.10;1.90;;;22.00;77.80;;;;;;5090578;28;20050;-86
2021/08/25 10:47:14;;;;;;;2.65;1.45;;;22.20;74.60;;;;;;5084094;28;20123;-85
2021/08/25 10:49:44;;;;;;;4.03;2.25;;;22.30;73.50;;;;;;5087195;28;20064;-86
2021/08/25 10:52:12;;;;;;;9.00;2.47;;;22.40;73.30;;;;;;5084769;28;20294;-86
2021/08/25 10:54:38;;;;;;;3.47;2.22;;;22.40;75.20;;;;;;5096981;28;20028;-86
2021/08/25 10:57:08;;;;;;;2.50;1.65;;;22.50;74.20;;;;;;5083552;28;20048;-86
2021/08/25 10:59:33;;;;;;;4.43;2.25;;;22.70;73.80;;;;;;5087298;28;20471;-86
2021/08/25 11:02:00;;;;;;;6.53;2.20;;;22.80;73.60;;;;;;5083309;28;20040;-86
2021/08/25 11:04:26;;;;;;;2.85;1.63;;;22.90;74.10;;;;;;5086339;28;20410;-86
2021/08/25 11:06:56;;;;;;;6.00;2.28;;;23.00;76.20;;;;;;5078119;28;20119;-86
2021/08/25 11:09:33;;;;;;;3.83;2.03;;;23.10;74.50;;;;;;5085206;28;20043;-87
2021/08/25 11:12:04;;;;;;;2.85;1.95;;;23.30;76.30;;;;;;5090554;28;20041;-86
2021/08/25 11:14:46;;;;;;;2.38;1.52;;;23.40;74.70;;;;;;5079213;28;20046;-86
2021/08/25 11:17:31;;;;;;;3.30;1.92;;;23.40;74.00;;;;;;5081087;28;20059;-86
2021/08/25 11:20:08;;;;;;;3.10;1.77;;;23.50;74.30;;;;;;5092896;28;20074;-85
2021/08/25 11:22:44;;;;;;;2.33;1.58;;;23.60;72.30;;;;;;5088297;28;20055;-85
2021/08/25 11:25:17;;;;;;;3.22;1.83;;;23.70;74.30;;;;;;5093013;28;20031;-85
2021/08/25 11:27:44;;;;;;;2.15;1.60;;;23.80;71.70;;;;;;5083564;28;20738;-85
2021/08/25 11:30:15;;;;;;;3.85;2.17;;;23.80;72.40;;;;;;5087693;28;20131;-85
2021/08/25 11:32:49;;;;;;;8.02;1.95;;;23.60;70.00;;;;;;5079684;28;20033;-85
2021/08/25 11:35:27;;;;;;;3.72;2.15;;;23.50;70.10;;;;;;5091805;28;20393;-85
2021/08/25 11:37:58;;;;;;;2.47;1.88;;;23.40;71.30;;;;;;5091251;28;20050;-84
2021/08/25 11:40:25;;;;;;;2.80;2.08;;;23.40;71.10;;;;;;5090068;28;20044;-85
2021/08/25 11:42:51;;;;;;;2.85;1.77;;;23.40;71.40;;;;;;5088871;28;20043;-85
2021/08/25 11:45:36;;;;;;;2.28;1.55;;;23.40;72.60;;;;;;5085416;28;20032;-86
2021/08/25 11:48:03;;;;;;;3.35;1.63;;;23.40;70.50;;;;;;5099647;28;20055;-85
2021/08/25 11:50:31;;;;;;;2.92;1.90;;;23.40;72.90;;;;;;5087163;28;20127;-85
2021/08/25 11:52:59;;;;;;;4.95;1.45;;;23.30;73.00;;;;;;5088188;28;20032;-84
2021/08/25 11:55:24;;;;;;;3.10;1.98;;;23.30;72.20;;;;;;5090546;28;20089;-85
2021/08/25 11:57:53;;;;;;;5.40;1.98;;;23.20;72.80;;;;;;5086195;28;20327;-85
2021/08/25 12:00:35;;;;;;;3.65;1.38;;;23.20;72.20;;;;;;5107325;28;20129;-84
2021/08/25 12:03:03;;;;;;;3.08;2.08;;;23.20;71.40;;;;;;5089814;28;20044;-84
2021/08/25 12:05:34;;;;;;;2.90;1.42;;;23.20;72.20;;;;;;5088180;28;20045;-84
2021/08/25 12:08:00;;;;;;;2.90;1.80;;;23.10;72.00;;;;;;5096244;28;20036;-85
2021/08/25 12:10:26;;;;;;;3.78;2.28;;;22.90;73.40;;;;;;5093180;28;20070;-84
2021/08/25 12:12:52;;;;;;;3.15;1.83;;;22.90;74.60;;;;;;5091086;28;20353;-84
2021/08/25 12:15:18;;;;;;;3.00;1.70;;;22.90;74.90;;;;;;5097803;28;20162;-84
2021/08/25 12:17:58;;;;;;;2.97;1.85;;;22.80;73.10;;;;;;5094775;28;20061;-84
2021/08/25 12:20:38;;;;;;;3.67;1.60;;;22.70;74.70;;;;;;5080160;28;20068;-84
2021/08/25 12:23:08;;;;;;;3.05;1.52;;;22.70;75.30;;;;;;5086614;28;20154;-84
2021/08/25 12:25:45;;;;;;;3.55;2.20;;;22.80;73.80;;;;;;5088830;28;20393;-85
2021/08/25 12:28:13;;;;;;;2.88;1.67;;;22.80;74.10;;;;;;5090828;28;20036;-84
2021/08/25 12:30:41;;;;;;;2.80;1.77;;;22.70;73.20;;;;;;5088774;28;20351;-84
2021/08/25 12:33:08;;;;;;;2.55;1.60;;;22.70;74.40;;;;;;5101333;28;20028;-84
2021/08/25 12:35:35;;;;;;;2.97;1.85;;;22.70;74.10;;;;;;5083603;28;20036;-85
2021/08/25 12:38:03;;;;;;;3.47;2.13;;;22.50;73.80;;;;;;5079479;28;20063;-84
2021/08/25 12:40:29;;;;;;;5.28;2.30;;;22.50;74.90;;;;;;5090362;28;20035;-85
2021/08/25 12:42:56;;;;;;;3.80;1.58;;;22.50;75.20;;;;;;5098730;28;20036;-84
2021/08/25 12:45:22;;;;;;;3.22;1.80;;;22.50;76.50;;;;;;5098547;28;20126;-84